createdAt,value
2018-12-11T00:02:29.341Z,2.80
2018-12-11T00:04:57.758Z,2.80
2018-12-11T00:07:25.598Z,2.90
2018-12-11T00:09:53.479Z,2.90
2018-12-11T00:12:21.502Z,3.00
2018-12-11T00:14:51.085Z,3.00
2018-12-11T00:17:19.524Z,3.00
2018-12-11T00:19:52.149Z,3.00
2018-12-11T00:22:20.149Z,2.90
2018-12-11T00:24:48.211Z,2.90
2018-12-11T00:27:38.434Z,3.00
2018-12-11T00:30:06.535Z,2.90
2018-12-11T00:32:35.808Z,3.00
2018-12-11T00:35:06.972Z,3.00
2018-12-11T00:37:38.662Z,3.00
2018-12-11T00:40:06.964Z,2.90
2018-12-11T00:42:34.878Z,2.90
2018-12-11T00:45:03.358Z,2.90
2018-12-11T00:47:31.185Z,2.90
2018-12-11T00:50:02.414Z,2.80
2018-12-11T00:52:30.486Z,2.70
2018-12-11T00:54:58.486Z,2.70
2018-12-11T00:57:27.784Z,2.70
2018-12-11T00:59:56.514Z,2.70
2018-12-11T01:02:24.451Z,2.70
2018-12-11T01:04:52.644Z,2.60
2018-12-11T01:07:20.695Z,2.60
2018-12-11T01:09:48.717Z,2.60
2018-12-11T01:12:16.650Z,2.60
2018-12-11T01:14:44.471Z,2.60
2018-12-11T01:17:12.479Z,2.70
2018-12-11T01:19:41.529Z,2.70
2018-12-11T01:22:09.390Z,2.70
2018-12-11T01:24:37.242Z,2.70
2018-12-11T01:27:05.090Z,2.60
2018-12-11T01:29:36.103Z,2.60
2018-12-11T01:32:04.792Z,2.70
2018-12-11T01:34:34.898Z,2.60
2018-12-11T01:37:06.629Z,2.70
2018-12-11T01:39:35.053Z,2.70
2018-12-11T01:42:03.600Z,2.60
2018-12-11T01:44:32.188Z,2.60
2018-12-11T01:47:00.075Z,2.60
2018-12-11T01:49:28.004Z,2.60
2018-12-11T01:51:56.346Z,2.60
2018-12-11T01:54:28.219Z,2.60
2018-12-11T01:56:58.761Z,2.60
2018-12-11T01:59:27.376Z,2.60
2018-12-11T02:01:55.764Z,2.70
2018-12-11T02:04:23.679Z,2.70
2018-12-11T02:06:53.156Z,2.60
2018-12-11T02:09:21.926Z,2.60
2018-12-11T02:11:50.354Z,2.60
2018-12-11T02:14:19.163Z,2.70
2018-12-11T02:16:47.791Z,2.70
2018-12-11T02:19:15.726Z,2.70
2018-12-11T02:21:53.451Z,2.80
2018-12-11T02:24:22.829Z,2.80
2018-12-11T02:26:51.227Z,2.80
2018-12-11T02:29:19.681Z,2.80
2018-12-11T02:31:47.573Z,2.80
2018-12-11T02:34:15.483Z,2.80
2018-12-11T02:36:49.451Z,2.80
2018-12-11T02:39:18.183Z,2.80
2018-12-11T02:41:46.465Z,2.70
2018-12-11T02:44:14.915Z,2.80
2018-12-11T02:46:42.777Z,2.80
2018-12-11T02:49:17.702Z,2.80
2018-12-11T02:51:46.475Z,2.90
2018-12-11T02:54:16.196Z,2.90
2018-12-11T02:56:45.931Z,2.90
2018-12-11T02:59:17.051Z,2.90
2018-12-11T03:01:45.637Z,2.90
2018-12-11T03:04:13.683Z,2.90
2018-12-11T03:06:42.567Z,2.90
2018-12-11T03:09:10.362Z,2.90
2018-12-11T03:11:42.336Z,2.70
2018-12-11T03:14:10.116Z,2.70
2018-12-11T03:16:38.962Z,2.70
2018-12-11T03:19:06.772Z,2.60
2018-12-11T03:21:34.547Z,2.60
2018-12-11T03:24:02.357Z,2.50
2018-12-11T03:26:30.251Z,2.50
2018-12-11T03:29:04.500Z,2.50
2018-12-11T03:31:32.469Z,2.50
2018-12-11T03:34:26.547Z,2.40
2018-12-11T03:37:05.795Z,2.50
2018-12-11T03:40:00.273Z,2.50
2018-12-11T03:42:40.929Z,2.50
2018-12-11T03:45:12.014Z,2.50
2018-12-11T03:47:39.824Z,2.50
2018-12-11T03:50:08.934Z,2.60
2018-12-11T03:52:37.913Z,2.60
2018-12-11T03:55:06.400Z,2.50
2018-12-11T03:57:35.751Z,2.60
2018-12-11T04:02:37.184Z,2.50
2018-12-11T04:05:07.074Z,2.50
2018-12-11T04:07:34.867Z,2.50
2018-12-11T04:10:03.035Z,2.50
2018-12-11T04:12:31.820Z,2.50
2018-12-11T04:14:59.741Z,2.50
2018-12-11T04:17:28.792Z,2.50
2018-12-11T04:19:56.609Z,2.40
2018-12-11T04:22:24.517Z,2.50
2018-12-11T04:24:52.554Z,2.50
2018-12-11T04:27:21.938Z,2.50
2018-12-11T04:29:49.734Z,2.60
2018-12-11T04:32:17.617Z,2.60
2018-12-11T04:34:45.502Z,2.60
2018-12-11T04:37:13.354Z,2.60
2018-12-11T04:39:42.128Z,2.70
2018-12-11T04:42:09.993Z,2.70
2018-12-11T04:44:38.204Z,2.70
2018-12-11T04:47:05.724Z,2.80
2018-12-11T04:49:33.511Z,2.80
2018-12-11T04:52:01.370Z,2.80
2018-12-11T04:54:29.235Z,2.80
2018-12-11T04:56:57.567Z,2.80
2018-12-11T04:59:25.470Z,2.80
2018-12-11T05:01:54.127Z,2.80
2018-12-11T05:04:21.967Z,2.80
2018-12-11T05:06:49.930Z,2.80
2018-12-11T05:09:17.865Z,2.80
2018-12-11T05:11:45.821Z,2.80
2018-12-11T05:14:15.935Z,2.80
2018-12-11T05:16:44.414Z,2.80
2018-12-11T05:19:22.472Z,2.80
2018-12-11T05:21:51.831Z,2.80
2018-12-11T05:24:19.687Z,2.80
2018-12-11T05:26:47.680Z,2.80
2018-12-11T05:29:15.580Z,2.80
2018-12-11T05:31:45.179Z,2.90
2018-12-11T05:34:20.341Z,2.90
2018-12-11T05:36:48.489Z,2.90
2018-12-11T05:39:16.538Z,2.90
2018-12-11T05:41:46.002Z,2.90
2018-12-11T05:44:15.049Z,3.00
2018-12-11T05:46:44.747Z,3.00
2018-12-11T05:49:16.846Z,3.00
2018-12-11T05:51:47.463Z,3.00
2018-12-11T05:54:19.492Z,3.00
2018-12-11T05:56:51.298Z,3.00
2018-12-11T05:59:25.070Z,3.00
2018-12-11T06:01:59.780Z,3.00
2018-12-11T06:04:28.463Z,3.00
2018-12-11T06:06:56.585Z,3.00
2018-12-11T06:09:24.639Z,3.00
2018-12-11T06:11:57.424Z,3.00
2018-12-11T06:14:28.316Z,2.90
2018-12-11T06:16:58.049Z,2.90
2018-12-11T06:19:55.046Z,2.90
2018-12-11T06:22:44.825Z,2.90
2018-12-11T06:25:19.536Z,3.00
2018-12-11T06:27:52.107Z,3.00
2018-12-11T06:33:27.498Z,2.90
2018-12-11T06:36:28.115Z,3.00
2018-12-11T06:39:07.539Z,3.00
2018-12-11T06:41:39.479Z,3.00
2018-12-11T06:44:18.644Z,2.90
2018-12-11T06:47:04.558Z,2.90
2018-12-11T06:49:34.306Z,2.90
2018-12-11T06:52:10.863Z,3.00
2018-12-11T06:54:41.486Z,3.00
2018-12-11T06:57:09.668Z,2.90
2018-12-11T06:59:38.991Z,3.00
2018-12-11T07:02:11.247Z,3.00
2018-12-11T07:04:39.142Z,2.90
2018-12-11T07:07:07.292Z,2.90
2018-12-11T07:09:35.637Z,2.90
2018-12-11T07:12:35.495Z,2.90
2018-12-11T07:15:37.355Z,2.80
2018-12-11T07:18:48.771Z,2.80
2018-12-11T07:21:32.278Z,2.90
2018-12-11T07:24:08.248Z,2.90
2018-12-11T07:27:00.237Z,2.90
2018-12-11T07:29:48.375Z,2.80
2018-12-11T07:32:26.124Z,2.90
2018-12-11T07:34:58.407Z,2.90
2018-12-11T07:37:31.037Z,3.00
2018-12-11T07:40:07.490Z,2.90
2018-12-11T07:42:42.785Z,3.00
2018-12-11T07:45:19.058Z,3.00
2018-12-11T07:48:13.683Z,3.00
2018-12-11T07:50:51.030Z,3.00
2018-12-11T07:53:25.009Z,3.00
2018-12-11T07:56:00.021Z,2.90
2018-12-11T07:58:28.554Z,3.00
2018-12-11T08:01:03.743Z,3.10
2018-12-11T08:03:34.556Z,3.10
2018-12-11T08:06:10.016Z,3.20
2018-12-11T08:08:47.523Z,3.20
2018-12-11T08:11:16.349Z,3.20
2018-12-11T08:16:56.922Z,3.20
2018-12-11T08:19:25.704Z,3.10
2018-12-11T08:21:56.940Z,3.10
2018-12-11T08:24:30.395Z,3.30
2018-12-11T08:27:09.546Z,3.30
2018-12-11T08:29:44.641Z,3.20
2018-12-11T08:32:19.251Z,3.30
2018-12-11T08:34:50.465Z,3.30
2018-12-11T08:37:26.133Z,3.30
2018-12-11T08:43:02.540Z,3.40
2018-12-11T08:45:30.701Z,3.50
2018-12-11T08:48:00.677Z,3.60
2018-12-11T08:50:29.507Z,3.70
2018-12-11T08:53:03.784Z,3.70
2018-12-11T08:55:34.889Z,3.70
2018-12-11T08:58:21.240Z,3.70
2018-12-11T09:01:02.541Z,3.70
2018-12-11T09:07:15.773Z,3.70
2018-12-11T09:09:43.992Z,3.70
2018-12-11T09:12:12.826Z,3.50
2018-12-11T09:14:40.988Z,3.50
2018-12-11T09:17:10.181Z,3.60
2018-12-11T09:19:45.789Z,3.60
2018-12-11T09:27:59.556Z,3.60
2018-12-11T09:30:28.231Z,3.70
2018-12-11T09:33:12.131Z,3.70
2018-12-11T09:35:47.308Z,3.70
2018-12-11T09:38:16.484Z,3.70
2018-12-11T09:40:45.415Z,3.70
2018-12-11T09:43:25.757Z,3.80
2018-12-11T09:45:54.436Z,3.90
2018-12-11T09:55:05.622Z,4.10
2018-12-11T09:57:40.827Z,4.00
2018-12-11T10:00:13.505Z,3.80
2018-12-11T10:02:45.148Z,4.00
2018-12-11T10:05:25.423Z,4.00
2018-12-11T10:17:14.894Z,4.00
2018-12-11T10:19:45.800Z,3.90
2018-12-11T10:22:14.846Z,4.00
2018-12-11T10:24:46.243Z,4.00
2018-12-11T10:27:14.596Z,4.00
2018-12-11T10:29:43.777Z,4.00
2018-12-11T10:32:13.486Z,3.90
2018-12-11T10:34:43.345Z,3.70
2018-12-11T10:40:11.161Z,3.70
2018-12-11T10:43:07.602Z,3.70
2018-12-11T10:45:54.089Z,3.70
2018-12-11T10:48:39.500Z,3.50
2018-12-11T10:54:42.973Z,3.30
2018-12-11T10:57:11.857Z,3.40
2018-12-11T10:59:48.121Z,3.50
2018-12-11T11:02:22.813Z,3.60
2018-12-11T11:04:54.148Z,3.70
2018-12-11T11:07:54.153Z,3.70
2018-12-11T11:10:35.200Z,3.70
2018-12-11T11:13:03.805Z,3.90
2018-12-11T11:15:40.593Z,3.90
2018-12-11T11:18:10.316Z,4.00
2018-12-11T11:20:39.428Z,4.00
2018-12-11T11:23:07.540Z,4.00
2018-12-11T11:26:00.670Z,3.90
2018-12-11T11:28:48.897Z,3.70
2018-12-11T11:31:17.868Z,3.80
2018-12-11T11:33:56.324Z,3.90
2018-12-11T11:36:20.427Z,4.00
2018-12-11T11:38:51.870Z,4.10
2018-12-11T11:41:20.604Z,4.40
2018-12-11T11:43:52.281Z,4.50
2018-12-11T11:46:21.126Z,4.40
2018-12-11T11:48:50.792Z,4.30
2018-12-11T11:51:20.203Z,4.30
2018-12-11T11:53:48.280Z,4.30
2018-12-11T11:56:29.161Z,4.30
2018-12-11T11:58:57.724Z,4.40
2018-12-11T12:01:25.607Z,4.50
2018-12-11T12:04:05.441Z,4.60
2018-12-11T12:06:35.265Z,4.70
2018-12-11T12:09:23.014Z,4.70
2018-12-11T12:15:08.555Z,4.70
2018-12-11T12:18:05.609Z,4.70
2018-12-11T12:24:18.481Z,4.60
2018-12-11T12:26:48.122Z,4.60
2018-12-11T12:29:23.152Z,4.70
2018-12-11T12:31:52.075Z,4.70
2018-12-11T12:34:46.711Z,4.80
2018-12-11T12:37:43.328Z,4.70
2018-12-11T12:40:40.772Z,4.70
2018-12-11T12:43:37.376Z,4.60
2018-12-11T12:49:10.848Z,4.80
2018-12-11T12:51:42.336Z,4.80
2018-12-11T12:54:17.827Z,5.00
2018-12-11T12:56:47.099Z,5.10
2018-12-11T12:59:15.107Z,5.00
2018-12-11T13:01:44.863Z,5.10
2018-12-11T13:04:13.999Z,5.00
2018-12-11T13:06:42.333Z,5.10
2018-12-11T13:09:17.092Z,5.20
2018-12-11T13:15:07.132Z,5.20
2018-12-11T13:21:07.305Z,4.90
2018-12-11T13:23:40.163Z,4.90
2018-12-11T13:26:10.638Z,4.80
2018-12-11T13:28:39.934Z,4.90
2018-12-11T13:31:09.946Z,5.00
2018-12-11T13:33:38.392Z,5.00
2018-12-11T13:36:07.888Z,5.00
2018-12-11T13:44:44.262Z,5.10
2018-12-11T13:47:12.545Z,4.90
2018-12-11T13:49:43.773Z,5.00
2018-12-11T13:52:17.785Z,5.00
2018-12-11T13:54:50.495Z,5.10
2018-12-11T14:00:35.609Z,5.20
2018-12-11T14:03:04.568Z,5.20
2018-12-11T14:05:35.718Z,5.20
2018-12-11T14:08:07.755Z,5.30
2018-12-11T14:10:49.164Z,5.30
2018-12-11T14:13:39.542Z,5.20
2018-12-11T14:16:09.629Z,4.90
2018-12-11T14:18:39.642Z,5.00
2018-12-11T14:21:41.061Z,5.00
2018-12-11T14:24:09.656Z,5.00
2018-12-11T14:26:47.595Z,5.00
2018-12-11T14:35:47.642Z,4.70
2018-12-11T14:38:29.997Z,4.70
2018-12-11T14:44:44.895Z,4.70
2018-12-11T14:47:13.498Z,4.60
2018-12-11T14:49:49.221Z,4.50
2018-12-11T14:52:34.842Z,4.40
2018-12-11T14:58:36.309Z,4.20
2018-12-11T15:04:39.037Z,4.20
2018-12-11T15:13:08.923Z,4.30
2018-12-11T15:21:54.352Z,4.20
2018-12-11T15:24:48.110Z,4.20
2018-12-11T15:30:19.616Z,4.00
2018-12-11T15:36:01.581Z,4.10
2018-12-11T15:38:33.960Z,4.20
2018-12-11T15:44:12.800Z,4.10
2018-12-11T15:46:44.871Z,4.10
2018-12-11T15:49:14.173Z,4.00
2018-12-11T15:51:43.981Z,4.00
2018-12-11T15:56:36.613Z,4.00
2018-12-11T15:59:08.297Z,4.00
2018-12-11T16:02:00.140Z,4.10
2018-12-11T16:04:34.991Z,4.00
2018-12-11T16:07:35.576Z,4.00
2018-12-11T16:10:06.147Z,3.90
2018-12-11T16:27:18.665Z,3.80
2018-12-11T16:29:50.738Z,3.70
2018-12-11T16:32:42.596Z,3.70
2018-12-11T16:35:42.452Z,3.70
2018-12-11T16:38:55.807Z,3.80
2018-12-11T16:48:01.312Z,3.80
2018-12-11T16:53:20.351Z,3.70
2018-12-11T16:55:52.562Z,3.60
2018-12-11T16:58:40.553Z,3.60
2018-12-11T17:01:42.103Z,3.60
2018-12-11T17:04:52.607Z,3.50
2018-12-11T17:07:27.581Z,3.50
2018-12-11T17:10:02.070Z,3.50
2018-12-11T17:12:31.032Z,3.50
2018-12-11T17:15:10.057Z,3.50
2018-12-11T17:17:44.418Z,3.50
2018-12-11T17:20:23.442Z,3.50
2018-12-11T17:22:56.363Z,3.40
2018-12-11T17:25:27.130Z,3.40
2018-12-11T17:27:59.880Z,3.40
2018-12-11T17:33:58.698Z,3.40
2018-12-11T17:36:55.132Z,3.40
2018-12-11T17:39:55.426Z,3.50
2018-12-11T17:42:54.777Z,3.50
2018-12-11T17:45:29.193Z,3.40
2018-12-11T17:48:30.205Z,3.40
2018-12-11T17:51:46.234Z,3.50
2018-12-11T17:57:00.434Z,3.40
2018-12-11T17:59:31.753Z,3.30
2018-12-11T18:02:32.678Z,3.30
2018-12-11T18:08:27.474Z,3.30
2018-12-11T18:11:22.027Z,3.40
2018-12-11T18:14:05.655Z,3.40
2018-12-11T18:16:51.359Z,3.40
2018-12-11T18:19:20.249Z,3.40
2018-12-11T18:21:57.906Z,3.60
2018-12-11T18:24:30.064Z,3.40
2018-12-11T18:27:31.379Z,3.40
2018-12-11T18:30:20.182Z,3.50
2018-12-11T18:33:14.309Z,3.40
2018-12-11T18:36:02.170Z,3.50
2018-12-11T18:38:45.444Z,3.50
2018-12-11T18:41:15.019Z,3.50
2018-12-11T18:43:45.398Z,3.50
2018-12-11T18:46:19.437Z,3.50
2018-12-11T18:48:58.429Z,3.40
2018-12-11T18:51:28.668Z,3.40
2018-12-11T18:53:57.340Z,3.40
2018-12-11T18:56:26.021Z,3.30
2018-12-11T18:59:19.516Z,3.40
2018-12-11T19:02:04.974Z,3.30
2018-12-11T19:04:43.586Z,3.40
2018-12-11T19:07:21.073Z,3.40
2018-12-11T19:10:16.441Z,3.30
2018-12-11T19:12:47.813Z,3.30
2018-12-11T19:15:16.833Z,3.30
2018-12-11T19:17:45.693Z,3.30
2018-12-11T19:20:15.450Z,3.30
2018-12-11T19:22:55.648Z,3.20
2018-12-11T19:25:26.966Z,3.20
2018-12-11T19:28:22.146Z,3.30
2018-12-11T19:31:26.553Z,3.30
2018-12-11T19:34:11.134Z,3.40
2018-12-11T19:36:52.650Z,3.30
2018-12-11T19:39:36.092Z,3.40
2018-12-11T19:42:09.614Z,3.40
2018-12-11T19:44:38.862Z,3.40
2018-12-11T19:47:15.488Z,3.40
2018-12-11T19:49:53.338Z,3.30
2018-12-11T19:52:21.852Z,3.40
2018-12-11T19:55:12.733Z,3.50
2018-12-11T19:58:07.301Z,3.50
2018-12-11T20:00:42.014Z,3.50
2018-12-11T20:03:15.721Z,3.40
2018-12-11T20:05:45.299Z,3.40
2018-12-11T20:08:38.035Z,3.40
2018-12-11T20:11:26.165Z,3.40
2018-12-11T20:14:05.186Z,3.50
2018-12-11T20:16:34.132Z,3.40
2018-12-11T20:19:08.358Z,3.40
2018-12-11T20:30:25.885Z,3.30
2018-12-11T20:32:57.359Z,3.20
2018-12-11T20:39:06.582Z,3.10
2018-12-11T20:41:40.539Z,3.10
2018-12-11T20:44:18.985Z,3.20
2018-12-11T20:47:06.210Z,3.10
2018-12-11T20:49:35.561Z,3.00
2018-12-11T20:52:08.390Z,3.10
2018-12-11T20:54:41.815Z,3.10
2018-12-11T20:57:11.583Z,3.10
2018-12-11T20:59:41.212Z,3.10
2018-12-11T21:02:21.363Z,3.00
2018-12-11T21:04:57.745Z,3.00
2018-12-11T21:13:06.499Z,2.90
2018-12-11T21:15:35.657Z,2.90
2018-12-11T21:18:06.701Z,2.90
2018-12-11T21:24:55.717Z,2.80
2018-12-11T21:27:25.112Z,2.80
2018-12-11T21:29:53.874Z,2.80
2018-12-11T21:32:26.138Z,2.70
2018-12-11T21:34:54.770Z,2.80
2018-12-11T21:37:23.938Z,2.90
2018-12-11T21:39:53.723Z,2.90
2018-12-11T21:42:24.294Z,2.80
2018-12-11T21:44:52.971Z,2.80
2018-12-11T21:47:24.937Z,2.90
2018-12-11T21:49:55.737Z,2.90
2018-12-11T21:52:25.537Z,2.80
2018-12-11T21:54:55.109Z,2.80
2018-12-11T21:57:26.075Z,2.80
2018-12-11T22:00:04.652Z,2.80
2018-12-11T22:02:34.624Z,2.80
2018-12-11T22:05:09.140Z,2.80
2018-12-11T22:07:38.016Z,2.90
2018-12-11T22:10:07.671Z,2.90
2018-12-11T22:12:36.436Z,2.90
2018-12-11T22:15:04.964Z,3.00
2018-12-11T22:17:33.437Z,2.90
2018-12-11T22:20:02.191Z,2.90
2018-12-11T22:22:30.823Z,2.90
2018-12-11T22:24:58.859Z,2.80
2018-12-11T22:27:37.763Z,2.80
2018-12-11T22:30:21.028Z,2.70
2018-12-11T22:32:50.613Z,2.80
2018-12-11T22:35:24.127Z,2.70
2018-12-11T22:37:56.080Z,2.70
2018-12-11T22:40:24.528Z,2.70
2018-12-11T22:42:53.273Z,2.80
2018-12-11T22:45:21.155Z,2.80
2018-12-11T22:47:52.404Z,2.80
2018-12-11T22:50:20.338Z,2.80
2018-12-11T22:53:21.995Z,2.90
2018-12-11T22:58:19.190Z,2.90
2018-12-11T23:00:48.219Z,3.00
2018-12-11T23:03:16.814Z,3.00
2018-12-11T23:05:44.784Z,2.90
2018-12-11T23:08:16.584Z,2.90
2018-12-11T23:10:44.548Z,2.90
2018-12-11T23:13:15.424Z,2.90
2018-12-11T23:15:43.905Z,2.90
2018-12-11T23:18:12.399Z,2.90
2018-12-11T23:20:40.821Z,3.00
2018-12-11T23:23:08.729Z,2.90
2018-12-11T23:25:37.800Z,2.90
2018-12-11T23:28:07.729Z,2.90
2018-12-11T23:30:35.608Z,2.90
2018-12-11T23:33:06.946Z,2.80
2018-12-11T23:35:35.747Z,2.90
2018-12-11T23:38:04.021Z,2.90
2018-12-11T23:40:39.917Z,2.80
2018-12-11T23:43:08.993Z,2.90
2018-12-11T23:45:37.530Z,2.80
2018-12-11T23:48:15.981Z,2.90
2018-12-11T23:50:45.039Z,2.90
2018-12-11T23:53:13.631Z,2.90
2018-12-11T23:55:41.626Z,2.80
2018-12-11T23:58:15.407Z,2.80
